createdAt,value
2016-04-14T00:00:42.889Z,21.31
2016-04-14T00:01:42.876Z,21.21
2016-04-14T00:02:42.878Z,21.09
2016-04-14T00:03:42.897Z,20.99
2016-04-14T00:04:42.899Z,21.1
2016-04-14T00:05:42.886Z,20.95
2016-04-14T00:06:42.905Z,21.22
2016-04-14T00:07:42.892Z,21.27
2016-04-14T00:08:42.894Z,21.42
2016-04-14T00:09:42.911Z,21.35
2016-04-14T00:10:42.899Z,21.34
2016-04-14T00:11:42.901Z,21.19
2016-04-14T00:12:42.904Z,21.17
2016-04-14T00:13:42.907Z,21.29
2016-04-14T00:14:42.893Z,21.13
2016-04-14T00:15:42.912Z,21.04
2016-04-14T00:16:42.915Z,21.4
2016-04-14T00:17:42.917Z,21.42
2016-04-14T00:18:42.920Z,21.14
2016-04-14T00:19:42.923Z,21.19
2016-04-14T00:20:42.910Z,21.19
2016-04-14T00:21:42.912Z,21.37
2016-04-14T00:22:42.915Z,21.19
2016-04-14T00:23:42.918Z,21.42
2016-04-14T00:24:42.920Z,21.56
2016-04-14T00:25:42.923Z,21.53
2016-04-14T00:26:42.925Z,21.64
2016-04-14T00:27:42.929Z,21.77
2016-04-14T00:28:42.915Z,21.75
2016-04-14T00:29:42.933Z,21.75
2016-04-14T00:30:42.937Z,21.59
2016-04-14T00:31:42.939Z,21.28
2016-04-14T00:32:42.941Z,21.27
2016-04-14T00:33:42.945Z,21.1
2016-04-14T00:34:42.947Z,21.14
2016-04-14T00:35:42.934Z,20.97
2016-04-14T00:36:42.975Z,20.99
2016-04-14T00:37:42.790Z,21.09
2016-04-14T00:38:42.949Z,21.09
2016-04-14T00:39:42.952Z,20.94
2016-04-14T00:40:42.954Z,20.7
2016-04-14T00:41:42.957Z,20.89
2016-04-14T00:42:42.960Z,21.06
2016-04-14T00:43:42.962Z,21.19
2016-04-14T00:44:42.949Z,21.07
2016-04-14T00:45:42.952Z,21.07
2016-04-14T00:46:42.955Z,21.03
2016-04-14T00:47:42.958Z,21.06
2016-04-14T00:48:42.960Z,21.07
2016-04-14T00:49:42.963Z,21.06
2016-04-14T00:50:42.951Z,21.16
2016-04-14T00:51:42.968Z,21.12
2016-04-14T00:52:42.970Z,21.12
2016-04-14T00:53:42.959Z,21.13
2016-04-14T00:54:42.961Z,21.27
2016-04-14T00:55:42.964Z,20.98
2016-04-14T00:56:42.966Z,21.07
2016-04-14T00:57:42.984Z,21.06
2016-04-14T00:58:42.972Z,21.13
2016-04-14T00:59:42.974Z,20.99
2016-04-14T01:00:42.977Z,21.31
2016-04-14T01:01:42.995Z,21.65
2016-04-14T01:02:42.982Z,21.94
2016-04-14T01:03:42.985Z,21.9
2016-04-14T01:04:42.988Z,21.91
2016-04-14T01:05:42.990Z,21.67
2016-04-14T01:06:42.994Z,21.52
2016-04-14T01:07:42.996Z,21.28
2016-04-14T01:08:42.999Z,21.38
2016-04-14T01:09:43.001Z,21.04
2016-04-14T01:10:42.988Z,21.14
2016-04-14T01:11:43.007Z,21.27
2016-04-14T01:12:43.009Z,21.13
2016-04-14T01:13:43.012Z,21.14
2016-04-14T01:14:42.999Z,21.25
2016-04-14T01:15:43.017Z,21.07
2016-04-14T01:16:43.020Z,21.25
2016-04-14T01:17:43.007Z,21.35
2016-04-14T01:18:43.003Z,21.22
2016-04-14T01:19:43.038Z,21.59
2016-04-14T01:20:43.009Z,21.62
2016-04-14T01:21:43.012Z,21.52
2016-04-14T01:22:43.014Z,21.64
2016-04-14T01:23:43.017Z,21.54
2016-04-14T01:24:43.020Z,21.54
2016-04-14T01:25:43.022Z,21.64
2016-04-14T01:26:43.041Z,21.64
2016-04-14T01:27:43.060Z,21.61
2016-04-14T01:28:43.155Z,21.67
2016-04-14T01:29:43.049Z,21.74
2016-04-14T01:30:43.036Z,21.61
2016-04-14T01:31:43.038Z,21.94
2016-04-14T01:32:43.339Z,21.88
2016-04-14T01:33:43.044Z,21.74
2016-04-14T01:34:43.063Z,21.64
2016-04-14T01:35:43.065Z,21.83
2016-04-14T01:36:43.052Z,21.62
2016-04-14T01:37:43.055Z,21.53
2016-04-14T01:38:43.057Z,22
2016-04-14T01:39:43.076Z,22.07
2016-04-14T01:40:43.079Z,22.03
2016-04-14T01:41:43.081Z,22.06
2016-04-14T01:42:43.068Z,21.91
2016-04-14T01:43:43.071Z,21.54
2016-04-14T01:44:43.090Z,21.43
2016-04-14T01:45:43.076Z,21.42
2016-04-14T01:46:43.079Z,21.35
2016-04-14T01:47:43.081Z,21.83
2016-04-14T01:48:43.084Z,21.9
2016-04-14T01:49:43.087Z,22.05
2016-04-14T01:50:43.090Z,22.25
2016-04-14T01:51:43.092Z,22.07
2016-04-14T01:52:43.095Z,21.91
2016-04-14T01:53:43.114Z,21.65
2016-04-14T01:54:43.100Z,21.88
2016-04-14T01:55:43.119Z,22.14
2016-04-14T01:56:43.105Z,22.27
2016-04-14T01:57:43.109Z,22.42
2016-04-14T01:58:43.127Z,22.09
2016-04-14T01:59:43.114Z,21.9
2016-04-14T02:00:43.117Z,21.91
2016-04-14T02:01:43.135Z,22.18
2016-04-14T02:02:43.122Z,22.45
2016-04-14T02:03:43.125Z,22.24
2016-04-14T02:04:43.127Z,22.51
2016-04-14T02:05:43.130Z,22.21
2016-04-14T02:06:43.132Z,22.02
2016-04-14T02:07:43.135Z,21.83
2016-04-14T02:08:43.138Z,21.94
2016-04-14T02:09:43.141Z,21.74
2016-04-14T02:10:43.050Z,21.92
2016-04-14T02:11:43.146Z,22.02
2016-04-14T02:12:43.164Z,22.05
2016-04-14T02:13:43.151Z,21.79
2016-04-14T02:14:43.154Z,21.86
2016-04-14T02:15:43.173Z,21.5
2016-04-14T02:16:43.160Z,21.52
2016-04-14T02:17:43.163Z,21.42
2016-04-14T02:18:43.165Z,21.07
2016-04-14T02:19:43.167Z,21.54
2016-04-14T02:20:43.171Z,21.88
2016-04-14T02:21:43.173Z,22.02
2016-04-14T02:22:43.176Z,22.15
2016-04-14T02:23:43.179Z,22.21
2016-04-14T02:24:43.181Z,21.88
2016-04-14T02:25:43.262Z,22.06
2016-04-14T02:26:43.186Z,21.82
2016-04-14T02:27:43.189Z,22.15
2016-04-14T02:28:43.191Z,22.15
2016-04-14T02:29:43.195Z,21.83
2016-04-14T02:30:43.197Z,21.94
2016-04-14T02:31:43.215Z,21.96
2016-04-14T02:32:43.203Z,21.8
2016-04-14T02:33:43.205Z,21.61
2016-04-14T02:34:43.224Z,21.84
2016-04-14T02:35:43.227Z,21.77
2016-04-14T02:36:43.213Z,21.59
2016-04-14T02:37:43.216Z,21.21
2016-04-14T02:38:43.219Z,21.17
2016-04-14T02:39:43.221Z,21.1
2016-04-14T02:40:43.271Z,21.07
2016-04-14T02:41:43.227Z,21.09
2016-04-14T02:42:43.229Z,21.12
2016-04-14T02:43:43.232Z,21.46
2016-04-14T02:44:43.235Z,21.43
2016-04-14T02:45:43.237Z,21.44
2016-04-14T02:46:43.240Z,21.17
2016-04-14T02:47:43.228Z,21.22
2016-04-14T02:48:43.230Z,21.22
2016-04-14T02:49:43.248Z,21.38
2016-04-14T02:50:43.236Z,21.12
2016-04-14T02:51:43.238Z,21.42
2016-04-14T02:52:43.242Z,21.31
2016-04-14T02:53:43.259Z,21.43
2016-04-14T02:54:43.247Z,21.34
2016-04-14T02:55:43.561Z,21.61
2016-04-14T02:56:43.252Z,21.67
2016-04-14T02:57:43.255Z,21.52
2016-04-14T02:58:43.257Z,21.43
2016-04-14T02:59:43.260Z,21.42
2016-04-14T03:00:43.263Z,21.32
2016-04-14T03:01:43.250Z,21.17
2016-04-14T03:02:43.252Z,20.91
2016-04-14T03:03:43.271Z,21.25
2016-04-14T03:04:43.273Z,21.37
2016-04-14T03:05:43.261Z,21.35
2016-04-14T03:06:43.279Z,21.61
2016-04-14T03:07:43.265Z,21.64
2016-04-14T03:08:43.269Z,21.77
2016-04-14T03:09:43.287Z,21.65
2016-04-14T03:10:43.290Z,21.96
2016-04-14T03:11:43.276Z,21.64
2016-04-14T03:12:43.279Z,21.65
2016-04-14T03:13:43.281Z,21.53
2016-04-14T03:14:43.285Z,21.83
2016-04-14T03:15:43.303Z,21.52
2016-04-14T03:16:43.305Z,21.32
2016-04-14T03:17:43.293Z,21.62
2016-04-14T03:18:43.295Z,21.61
2016-04-14T03:19:43.314Z,21.42
2016-04-14T03:20:43.301Z,21.9
2016-04-14T03:21:43.303Z,21.8
2016-04-14T03:22:43.306Z,21.67
2016-04-14T03:23:43.309Z,21.99
2016-04-14T03:24:43.311Z,21.88
2016-04-14T03:25:43.361Z,21.49
2016-04-14T03:26:43.333Z,21.17
2016-04-14T03:27:43.319Z,21.22
2016-04-14T03:28:43.323Z,21.06
2016-04-14T03:29:43.325Z,21.12
2016-04-14T03:30:43.344Z,21.01
2016-04-14T03:31:43.314Z,21.37
2016-04-14T03:32:43.317Z,21.22
2016-04-14T03:33:43.336Z,21.13
2016-04-14T03:34:43.338Z,20.73
2016-04-14T03:35:43.325Z,21.09
2016-04-14T03:36:43.343Z,21.06
2016-04-14T03:37:43.346Z,20.62
2016-04-14T03:38:43.333Z,20.98
2016-04-14T03:39:43.336Z,20.7
2016-04-14T03:40:43.448Z,20.97
2016-04-14T03:41:43.341Z,20.72
2016-04-14T03:42:43.204Z,20.84
2016-04-14T03:43:43.346Z,20.98
2016-04-14T03:44:43.334Z,21.29
2016-04-14T03:45:43.352Z,21.4
2016-04-14T03:46:43.339Z,21.07
2016-04-14T03:47:43.343Z,21.1
2016-04-14T03:48:43.345Z,21.17
2016-04-14T03:49:43.362Z,21.19
2016-04-14T03:50:43.351Z,20.82
2016-04-14T03:51:43.353Z,20.64
2016-04-14T03:52:43.371Z,20.97
2016-04-14T03:53:43.358Z,20.7
2016-04-14T03:54:43.361Z,20.72
2016-04-14T03:55:43.489Z,21.12
2016-04-14T03:56:43.351Z,20.87
2016-04-14T03:57:43.369Z,21.21
2016-04-14T03:58:43.355Z,20.91
2016-04-14T03:59:43.358Z,21.07
2016-04-14T04:00:43.377Z,21.1
2016-04-14T04:01:43.380Z,20.91
2016-04-14T04:02:43.366Z,20.88
2016-04-14T04:03:43.369Z,20.87
2016-04-14T04:04:43.372Z,20.95
2016-04-14T04:05:43.374Z,20.95
2016-04-14T04:06:43.377Z,20.97
2016-04-14T04:07:43.365Z,21.21
2016-04-14T04:08:43.367Z,21.1
2016-04-14T04:09:43.386Z,20.94
2016-04-14T04:10:43.544Z,20.97
2016-04-14T04:11:43.375Z,21.09
2016-04-14T04:12:43.379Z,21.12
2016-04-14T04:13:43.381Z,21.09
2016-04-14T04:14:43.384Z,21.32
2016-04-14T04:15:43.387Z,21.29
2016-04-14T04:16:43.389Z,21.34
2016-04-14T04:17:43.392Z,21.29
2016-04-14T04:18:43.441Z,21.44
2016-04-14T04:19:43.443Z,21.65
2016-04-14T04:20:43.415Z,21.42
2016-04-14T04:21:43.403Z,21.62
2016-04-14T04:22:43.406Z,21.8
2016-04-14T04:23:43.408Z,21.83
2016-04-14T04:24:43.395Z,21.91
2016-04-14T04:25:43.413Z,21.86
2016-04-14T04:26:43.400Z,21.5
2016-04-14T04:27:43.419Z,21.49
2016-04-14T04:28:43.422Z,21.64
2016-04-14T04:29:43.408Z,21.38
2016-04-14T04:30:43.426Z,21.86
2016-04-14T04:31:43.430Z,22.03
2016-04-14T04:32:43.416Z,21.88
2016-04-14T04:33:43.419Z,21.74
2016-04-14T04:34:43.438Z,22.09
2016-04-14T04:35:43.424Z,21.94
2016-04-14T04:36:43.427Z,21.79
2016-04-14T04:37:43.446Z,21.4
2016-04-14T04:38:43.432Z,21.64
2016-04-14T04:39:43.482Z,21.68
2016-04-14T04:40:43.437Z,21.91
2016-04-14T04:41:43.440Z,21.38
2016-04-14T04:42:43.443Z,21.65
2016-04-14T04:43:43.446Z,21.52
2016-04-14T04:44:43.448Z,21.34
2016-04-14T04:45:43.451Z,21.19
2016-04-14T04:46:43.454Z,21.22
2016-04-14T04:47:43.456Z,21.19
2016-04-14T04:48:43.443Z,21.03
2016-04-14T04:49:43.462Z,21.64
2016-04-14T04:50:43.448Z,21.53
2016-04-14T04:51:43.483Z,21.47
2016-04-14T04:52:43.470Z,21.16
2016-04-14T04:53:43.457Z,21.67
2016-04-14T04:54:43.303Z,21.92
2016-04-14T04:55:43.462Z,21.8
2016-04-14T04:56:43.465Z,21.65
2016-04-14T04:57:43.467Z,21.67
2016-04-14T04:58:43.470Z,21.27
2016-04-14T04:59:43.472Z,21.25
2016-04-14T05:00:43.475Z,21.07
2016-04-14T05:01:43.479Z,20.91
2016-04-14T05:02:43.481Z,21.25
2016-04-14T05:03:43.483Z,20.97
2016-04-14T05:04:43.487Z,21.35
2016-04-14T05:05:43.489Z,21.19
2016-04-14T05:06:43.492Z,21.1
2016-04-14T05:07:43.479Z,21.35
2016-04-14T05:08:43.497Z,20.84
2016-04-14T05:09:43.499Z,21.14
2016-04-14T05:10:43.488Z,21.01
2016-04-14T05:11:43.505Z,21.27
2016-04-14T05:12:43.493Z,21.28
2016-04-14T05:13:43.510Z,21.27
2016-04-14T05:14:43.557Z,21.27
2016-04-14T05:15:43.604Z,21.54
2016-04-14T05:16:43.651Z,21.27
2016-04-14T05:17:43.683Z,21.24
2016-04-14T05:18:43.720Z,21.25
2016-04-14T05:19:43.756Z,21.25
2016-04-14T05:20:43.774Z,21.49
2016-04-14T05:21:43.777Z,21.61
2016-04-14T05:22:43.796Z,21.82
2016-04-14T05:23:43.812Z,22.09
2016-04-14T05:24:43.836Z,22.21
2016-04-14T05:25:43.828Z,22.31
2016-04-14T05:26:43.852Z,22.1
2016-04-14T05:27:43.845Z,22.03
2016-04-14T05:28:43.853Z,22.17
2016-04-14T05:29:43.858Z,22.27
2016-04-14T05:30:43.862Z,22.49
2016-04-14T05:31:43.868Z,22.55
2016-04-14T05:32:43.873Z,22.37
2016-04-14T05:33:43.893Z,22.52
2016-04-14T05:34:43.880Z,22.58
2016-04-14T05:35:43.884Z,22.57
2016-04-14T05:36:43.888Z,22.65
2016-04-14T05:37:43.891Z,22.77
2016-04-14T05:38:43.753Z,22.79
2016-04-14T05:39:43.897Z,22.73
2016-04-14T05:40:43.900Z,22.8
2016-04-14T05:41:43.918Z,22.82
2016-04-14T05:42:43.921Z,22.82
2016-04-14T05:43:43.923Z,22.8
2016-04-14T05:44:43.910Z,22.58
2016-04-14T05:45:43.929Z,22.82
2016-04-14T05:46:43.916Z,22.79
2016-04-14T05:47:43.935Z,23.15
2016-04-14T05:48:43.937Z,23.4
2016-04-14T05:49:43.955Z,23.55
2016-04-14T05:50:43.943Z,23.51
2016-04-14T05:51:43.945Z,23.36
2016-04-14T05:52:43.948Z,23.83
2016-04-14T05:53:43.951Z,23.91
2016-04-14T05:54:43.953Z,23.85
2016-04-14T05:55:43.971Z,23.68
2016-04-14T05:56:43.958Z,23.83
2016-04-14T05:57:43.976Z,24.08
2016-04-14T05:58:43.979Z,24.25
2016-04-14T05:59:43.982Z,24.25
2016-04-14T06:00:43.985Z,24.22
2016-04-14T06:01:44.003Z,24.3
2016-04-14T06:02:43.990Z,24.25
2016-04-14T06:03:43.993Z,24.3
2016-04-14T06:04:43.995Z,24.28
2016-04-14T06:05:44.014Z,24.09
2016-04-14T06:06:44.000Z,24.2
2016-04-14T06:07:44.003Z,24.24
2016-04-14T06:08:44.021Z,24.16
2016-04-14T06:09:44.024Z,24.16
2016-04-14T06:10:44.043Z,24.28
2016-04-14T06:11:44.045Z,24.2
2016-04-14T06:12:44.032Z,23.91
2016-04-14T06:13:44.035Z,24.16
2016-04-14T06:14:44.053Z,24.21
2016-04-14T06:15:44.056Z,24.02
2016-04-14T06:16:44.059Z,24.09
2016-04-14T06:17:44.062Z,24.65
2016-04-14T06:18:44.064Z,24.46
2016-04-14T06:19:44.068Z,24.61
2016-04-14T06:20:44.085Z,24.47
2016-04-14T06:21:44.073Z,24.45
2016-04-14T06:22:44.075Z,24.57
2016-04-14T06:23:44.078Z,24.77
2016-04-14T06:24:43.924Z,24.65
2016-04-14T06:25:44.099Z,25.03
2016-04-14T06:26:44.118Z,25.05
2016-04-14T06:27:44.104Z,24.91
2016-04-14T06:28:44.092Z,25.05
2016-04-14T06:29:44.095Z,25.69
2016-04-14T06:30:44.112Z,25.55
2016-04-14T06:31:44.115Z,26.21
2016-04-14T06:32:44.117Z,26.7
2016-04-14T06:33:44.120Z,26.75
2016-04-14T06:34:44.138Z,27.27
2016-04-14T06:35:44.141Z,27.6
2016-04-14T06:36:44.144Z,27.44
2016-04-14T06:37:44.146Z,26.97
2016-04-14T06:38:44.149Z,26.75
2016-04-14T06:39:44.246Z,27.27
2016-04-14T06:40:44.170Z,27.75
2016-04-14T06:41:44.173Z,28.14
2016-04-14T06:42:44.191Z,28.15
2016-04-14T06:43:44.178Z,28.29
2016-04-14T06:44:44.180Z,28.98
2016-04-14T06:45:44.246Z,28.66
2016-04-14T06:46:44.218Z,28.49
2016-04-14T06:47:44.205Z,28.44
2016-04-14T06:48:44.223Z,28.67
2016-04-14T06:49:44.226Z,28.51
2016-04-14T06:50:44.228Z,28.21
2016-04-14T06:51:44.246Z,28.09
2016-04-14T06:52:44.249Z,28.7
2016-04-14T06:53:44.252Z,28.8
2016-04-14T06:54:44.271Z,29.18
2016-04-14T06:55:44.273Z,29.41
2016-04-14T06:56:44.229Z,29.52
2016-04-14T06:57:44.295Z,29.89
2016-04-14T06:58:44.298Z,30.02
2016-04-14T06:59:44.316Z,30.04
2016-04-14T07:00:44.318Z,29.46
2016-04-14T07:01:44.321Z,29.19
2016-04-14T07:02:44.324Z,28.49
2016-04-14T07:03:44.357Z,27.57
2016-04-14T07:04:44.346Z,26.75
2016-04-14T07:05:44.410Z,26.29
2016-04-14T07:06:44.377Z,25.85
2016-04-14T07:07:44.380Z,25.54
2016-04-14T07:08:44.220Z,25.4
2016-04-14T07:09:44.239Z,24.96
2016-04-14T07:10:44.402Z,24.53
2016-04-14T07:11:44.313Z,23.65
2016-04-14T07:12:44.410Z,24
2016-04-14T07:13:44.106Z,24.5
2016-04-14T07:14:44.266Z,24.69
2016-04-14T07:15:44.440Z,24.83
2016-04-14T07:16:44.422Z,24.32
2016-04-14T07:17:44.505Z,23.93
2016-04-14T07:18:44.444Z,23.91
2016-04-14T07:19:44.463Z,23.95
2016-04-14T07:20:44.450Z,24.03
2016-04-14T07:21:44.452Z,23.97
2016-04-14T07:22:44.487Z,24.03
2016-04-14T07:23:44.457Z,23.8
2016-04-14T07:24:44.476Z,24
2016-04-14T07:25:44.463Z,24
2016-04-14T07:26:44.653Z,24.1
2016-04-14T07:27:44.484Z,24.18
2016-04-14T07:28:44.486Z,24.22
2016-04-14T07:29:44.489Z,24.31
2016-04-14T07:30:44.523Z,24.1
2016-04-14T07:31:44.511Z,24.13
2016-04-14T07:32:44.497Z,24.1
2016-04-14T07:33:44.516Z,24.15
2016-04-14T07:34:44.519Z,24.39
2016-04-14T07:35:44.364Z,24.22
2016-04-14T07:36:44.524Z,24
2016-04-14T07:37:44.527Z,23.83
2016-04-14T07:38:44.545Z,24.3
2016-04-14T07:39:44.533Z,24.53
2016-04-14T07:40:44.567Z,24.57
2016-04-14T07:41:44.694Z,24.76
2016-04-14T07:42:44.572Z,24.64
2016-04-14T07:43:44.558Z,24.62
2016-04-14T07:44:44.577Z,24.8
2016-04-14T07:45:44.580Z,24.96
2016-04-14T07:46:44.582Z,25.05
2016-04-14T07:47:44.585Z,25.18
2016-04-14T07:48:44.602Z,25.08
2016-04-14T07:49:44.590Z,25.1
2016-04-14T07:50:44.608Z,25.08
2016-04-14T07:51:44.610Z,25.3
2016-04-14T07:52:44.630Z,25.17
2016-04-14T07:53:44.616Z,25.17
2016-04-14T07:54:44.635Z,25.18
2016-04-14T07:55:44.732Z,25.38
2016-04-14T07:56:44.578Z,25.57
2016-04-14T07:57:44.659Z,25.64
2016-04-14T07:58:44.645Z,25.72
2016-04-14T07:59:44.664Z,25.61
2016-04-14T08:00:44.666Z,25.64
2016-04-14T08:01:44.684Z,25.55
2016-04-14T08:02:44.687Z,25.6
2016-04-14T08:03:44.690Z,25.47
2016-04-14T08:04:44.693Z,25.45
2016-04-14T08:05:44.695Z,25.5
2016-04-14T08:06:44.714Z,25.62
2016-04-14T08:07:44.717Z,25.76
2016-04-14T08:08:44.591Z,25.72
2016-04-14T08:09:44.790Z,25.7
2016-04-14T08:10:44.731Z,25.8
2016-04-14T08:11:44.609Z,25.83
2016-04-14T08:12:44.736Z,25.92
2016-04-14T08:13:44.754Z,26.06
2016-04-14T08:14:44.773Z,25.9
2016-04-14T08:15:44.775Z,25.87
2016-04-14T08:16:44.778Z,25.87
2016-04-14T08:17:44.781Z,25.87
2016-04-14T08:18:44.784Z,25.9
2016-04-14T08:19:44.786Z,25.82
2016-04-14T08:20:44.789Z,25.7
2016-04-14T08:21:44.807Z,25.85
2016-04-14T08:22:44.810Z,25.79
2016-04-14T08:23:44.813Z,25.9
2016-04-14T08:24:44.908Z,25.9
2016-04-14T08:25:44.818Z,25.85
2016-04-14T08:26:44.913Z,26.02
2016-04-14T08:27:44.838Z,25.98
2016-04-14T08:28:44.857Z,25.83
2016-04-14T08:29:44.860Z,25.79
2016-04-14T08:30:44.863Z,25.6
2016-04-14T08:31:44.881Z,25.67
2016-04-14T08:32:44.884Z,25.67
2016-04-14T08:33:44.887Z,25.82
2016-04-14T08:34:44.889Z,25.85
2016-04-14T08:35:44.907Z,25.76
2016-04-14T08:36:44.901Z,25.77
2016-04-14T08:37:45.233Z,25.87
2016-04-14T08:38:44.939Z,25.73
2016-04-14T08:39:44.926Z,25.99
2016-04-14T08:40:44.929Z,26.25
2016-04-14T08:41:45.072Z,26.36
2016-04-14T08:42:44.950Z,26.4
2016-04-14T08:43:44.953Z,26.45
2016-04-14T08:44:44.955Z,26.32
2016-04-14T08:45:44.958Z,26.54
2016-04-14T08:46:44.975Z,26.65
2016-04-14T08:47:44.978Z,26.55
2016-04-14T08:48:44.997Z,26.5
2016-04-14T08:49:44.983Z,26.52
2016-04-14T08:50:45.689Z,26.45
2016-04-14T08:51:45.004Z,26.43
2016-04-14T08:52:45.007Z,26.4
2016-04-14T08:53:45.026Z,26.4
2016-04-14T08:54:45.044Z,26.15
2016-04-14T08:55:45.032Z,26.15
2016-04-14T08:56:45.080Z,26.06
2016-04-14T08:57:45.052Z,25.95
2016-04-14T08:58:45.054Z,26.02
2016-04-14T08:59:45.057Z,26.33
2016-04-14T09:00:45.060Z,26.48
2016-04-14T09:01:45.063Z,26.3
2016-04-14T09:02:45.082Z,26.25
2016-04-14T09:03:45.100Z,26.33
2016-04-14T09:04:45.087Z,26.36
2016-04-14T09:05:45.105Z,26.33
2016-04-14T09:06:45.108Z,26.23
2016-04-14T09:07:45.126Z,26.35
2016-04-14T09:08:45.113Z,26.36
2016-04-14T09:09:45.131Z,26.29
2016-04-14T09:10:45.134Z,26.36
2016-04-14T09:11:45.339Z,26.43
2016-04-14T09:12:45.155Z,26.33
2016-04-14T09:13:45.173Z,26.25
2016-04-14T09:14:45.160Z,26.12
2016-04-14T09:15:45.164Z,26.17
2016-04-14T09:16:45.213Z,26.3
2016-04-14T09:17:45.200Z,26.36
2016-04-14T09:18:45.187Z,26.32
2016-04-14T09:19:45.221Z,26.36
2016-04-14T09:20:45.208Z,26.32
2016-04-14T09:21:45.226Z,26.2
2016-04-14T09:22:45.213Z,26.17
2016-04-14T09:23:45.231Z,26.3
2016-04-14T09:24:45.234Z,26.15
2016-04-14T09:25:45.252Z,26.01
2016-04-14T09:26:45.240Z,25.85
2016-04-14T09:27:45.257Z,25.97
2016-04-14T09:28:45.277Z,26.02
2016-04-14T09:29:45.263Z,26.1
2016-04-14T09:30:45.282Z,26.09
2016-04-14T09:31:45.284Z,26.18
2016-04-14T09:32:45.287Z,26.07
2016-04-14T09:33:45.305Z,26.02
2016-04-14T09:34:45.307Z,26.06
2016-04-14T09:35:45.326Z,25.98
2016-04-14T09:36:45.329Z,26.1
2016-04-14T09:37:45.348Z,25.94
2016-04-14T09:38:45.335Z,25.73
2016-04-14T09:39:45.337Z,25.61
2016-04-14T09:40:45.403Z,25.67
2016-04-14T09:41:45.358Z,25.61
2016-04-14T09:42:45.345Z,25.82
2016-04-14T09:43:45.378Z,25.82
2016-04-14T09:44:45.366Z,25.85
2016-04-14T09:45:45.384Z,25.85
2016-04-14T09:46:45.386Z,25.91
2016-04-14T09:47:45.389Z,25.73
2016-04-14T09:48:45.408Z,25.83
2016-04-14T09:49:45.395Z,25.8
2016-04-14T09:50:45.429Z,25.7
2016-04-14T09:51:45.416Z,25.73
2016-04-14T09:52:45.435Z,25.67
2016-04-14T09:53:45.421Z,25.65
2016-04-14T09:54:45.440Z,25.61
2016-04-14T09:55:45.457Z,25.54
2016-04-14T09:56:45.570Z,25.62
2016-04-14T09:57:45.494Z,25.79
2016-04-14T09:58:45.576Z,25.72
2016-04-14T09:59:45.515Z,25.87
2016-04-14T10:00:45.471Z,25.95
2016-04-14T10:01:45.474Z,25.87
2016-04-14T10:02:45.477Z,25.9
2016-04-14T10:03:45.495Z,25.87
2016-04-14T10:04:45.498Z,25.87
2016-04-14T10:05:45.501Z,25.8
2016-04-14T10:06:45.518Z,25.87
2016-04-14T10:07:45.522Z,25.77
2016-04-14T10:08:45.540Z,25.75
2016-04-14T10:09:45.527Z,25.73
2016-04-14T10:10:45.562Z,25.69
2016-04-14T10:11:45.548Z,25.79
2016-04-14T10:12:45.551Z,25.83
2016-04-14T10:13:45.569Z,25.85
2016-04-14T10:14:45.556Z,25.83
2016-04-14T10:15:45.574Z,25.76
2016-04-14T10:16:45.577Z,25.75
2016-04-14T10:17:45.580Z,25.73
2016-04-14T10:18:45.598Z,25.73
2016-04-14T10:19:45.601Z,25.8
2016-04-14T10:20:45.603Z,25.73
2016-04-14T10:21:45.622Z,25.67
2016-04-14T10:22:45.624Z,25.58
2016-04-14T10:23:45.674Z,25.64
2016-04-14T10:24:45.630Z,25.55
2016-04-14T10:25:45.632Z,25.65
2016-04-14T10:26:45.635Z,25.54
2016-04-14T10:27:45.653Z,25.58
2016-04-14T10:28:45.671Z,25.39
2016-04-14T10:29:45.659Z,25.45
2016-04-14T10:30:45.662Z,25.61
2016-04-14T10:31:45.680Z,25.6
2016-04-14T10:32:45.682Z,25.64
2016-04-14T10:33:45.701Z,25.75
2016-04-14T10:34:45.688Z,25.67
2016-04-14T10:35:45.690Z,25.6
2016-04-14T10:36:45.835Z,25.62
2016-04-14T10:37:46.259Z,25.7
2016-04-14T10:38:45.715Z,25.72
2016-04-14T10:39:45.733Z,25.7
2016-04-14T10:40:45.735Z,25.6
2016-04-14T10:41:45.738Z,25.76
2016-04-14T10:42:45.756Z,25.82
2016-04-14T10:43:45.759Z,25.82
2016-04-14T10:44:45.761Z,25.65
2016-04-14T10:45:45.781Z,25.67
2016-04-14T10:46:45.767Z,25.72
2016-04-14T10:47:45.786Z,25.55
2016-04-14T10:48:45.789Z,25.33
2016-04-14T10:49:45.791Z,25.45
2016-04-14T10:50:45.794Z,25.62
2016-04-14T10:51:45.811Z,25.64
2016-04-14T10:52:45.814Z,25.65
2016-04-14T10:53:45.832Z,25.76
2016-04-14T10:54:45.819Z,25.76
2016-04-14T10:55:45.838Z,25.43
2016-04-14T10:56:45.841Z,25.6
2016-04-14T10:57:45.844Z,25.62
2016-04-14T10:58:45.846Z,25.65
2016-04-14T10:59:45.865Z,25.72
2016-04-14T11:00:45.882Z,25.73
2016-04-14T11:01:45.870Z,25.73
2016-04-14T11:02:45.873Z,25.67
2016-04-14T11:03:45.891Z,25.65
2016-04-14T11:04:45.894Z,25.61
2016-04-14T11:05:45.788Z,25.55
2016-04-14T11:06:45.899Z,25.57
2016-04-14T11:07:45.902Z,25.51
2016-04-14T11:08:45.920Z,25.38
2016-04-14T11:09:45.923Z,25.51
2016-04-14T11:10:45.941Z,25.58
2016-04-14T11:11:45.943Z,25.62
2016-04-14T11:12:45.946Z,25.64
2016-04-14T11:13:45.948Z,25.6
2016-04-14T11:14:45.952Z,25.58
2016-04-14T11:15:45.970Z,25.6
2016-04-14T11:16:45.973Z,25.58
2016-04-14T11:17:45.991Z,25.58
2016-04-14T11:18:45.962Z,25.69
2016-04-14T11:19:46.012Z,25.69
2016-04-14T11:20:46.014Z,25.61
2016-04-14T11:21:46.002Z,25.64
2016-04-14T11:22:46.019Z,25.61
2016-04-14T11:23:46.038Z,25.69
2016-04-14T11:24:46.041Z,25.72
2016-04-14T11:25:46.028Z,25.57
2016-04-14T11:26:46.047Z,25.55
2016-04-14T11:27:46.065Z,25.47
2016-04-14T11:28:46.052Z,25.43
2016-04-14T11:29:46.070Z,25.55
2016-04-14T11:30:46.073Z,25.52
2016-04-14T11:31:46.076Z,25.47
2016-04-14T11:32:46.094Z,25.43
2016-04-14T11:33:46.113Z,25.46
2016-04-14T11:34:46.098Z,25.4
2016-04-14T11:35:46.101Z,25.42
2016-04-14T11:36:46.104Z,25.42
2016-04-14T11:37:46.012Z,25.42
2016-04-14T11:38:45.969Z,25.45
2016-04-14T11:39:46.127Z,25.38
2016-04-14T11:40:46.161Z,25.42
2016-04-14T11:41:46.164Z,25.39
2016-04-14T11:42:46.167Z,25.45
2016-04-14T11:43:46.170Z,25.42
2016-04-14T11:44:46.172Z,25.36
2016-04-14T11:45:46.175Z,25.35
2016-04-14T11:46:46.193Z,25.18
2016-04-14T11:47:46.211Z,25.1
2016-04-14T11:48:46.199Z,25.18
2016-04-14T11:49:46.091Z,25.09
2016-04-14T11:50:46.193Z,25.23
2016-04-14T11:51:46.212Z,25.21
2016-04-14T11:52:46.215Z,25.27
2016-04-14T11:53:46.263Z,25.27
2016-04-14T11:54:46.235Z,25.23
2016-04-14T11:55:46.301Z,25.21
2016-04-14T11:56:46.100Z,25.35
2016-04-14T11:57:46.259Z,25.39
2016-04-14T11:58:46.261Z,25.25
2016-04-14T11:59:46.264Z,25.4
2016-04-14T12:00:46.267Z,25.2
2016-04-14T12:01:46.285Z,25.36
2016-04-14T12:02:46.288Z,25.27
2016-04-14T12:03:46.290Z,25.21
2016-04-14T12:04:46.293Z,25.14
2016-04-14T12:05:46.311Z,25.13
2016-04-14T12:06:46.330Z,25.17
2016-04-14T12:07:46.317Z,25.08
2016-04-14T12:08:46.335Z,25
2016-04-14T12:09:46.166Z,25.09
2016-04-14T12:10:46.340Z,25.21
2016-04-14T12:11:46.344Z,25.24
2016-04-14T12:12:46.361Z,25.3
2016-04-14T12:13:46.364Z,25.21
2016-04-14T12:14:46.366Z,25.08
2016-04-14T12:15:46.369Z,25.17
2016-04-14T12:16:46.388Z,25.21
2016-04-14T12:17:46.391Z,25.23
2016-04-14T12:18:46.394Z,25.2
2016-04-14T12:19:46.396Z,25.18
2016-04-14T12:20:46.415Z,25.2
2016-04-14T12:21:46.417Z,25.21
2016-04-14T12:22:46.420Z,25.21
2016-04-14T12:23:46.423Z,25.28
2016-04-14T12:24:46.425Z,25.28
2016-04-14T12:25:46.443Z,25.28
2016-04-14T12:26:46.446Z,25.35
2016-04-14T12:27:46.448Z,25.18
2016-04-14T12:28:46.468Z,25.23
2016-04-14T12:29:46.454Z,25.2
2016-04-14T12:30:46.473Z,25.18
2016-04-14T12:31:46.475Z,25.28
2016-04-14T12:32:46.478Z,25.33
2016-04-14T12:33:46.496Z,25.21
2016-04-14T12:34:46.498Z,25.24
2016-04-14T12:35:46.501Z,25.24
2016-04-14T12:36:46.519Z,25.23
2016-04-14T12:37:46.538Z,25.17
2016-04-14T12:38:46.509Z,25.14
2016-04-14T12:39:46.528Z,25.27
2016-04-14T12:40:46.531Z,25.28
2016-04-14T12:41:46.549Z,25.21
2016-04-14T12:42:46.552Z,25.06
2016-04-14T12:43:46.554Z,25.1
2016-04-14T12:44:46.557Z,25.09
2016-04-14T12:45:46.560Z,25.06
2016-04-14T12:46:46.578Z,25.1
2016-04-14T12:47:46.581Z,25.15
2016-04-14T12:48:46.615Z,25.1
2016-04-14T12:49:46.602Z,25.09
2016-04-14T12:50:46.604Z,25.09
2016-04-14T12:51:46.607Z,25.09
2016-04-14T12:52:46.609Z,25.09
2016-04-14T12:53:46.612Z,24.87
2016-04-14T12:54:46.631Z,25.05
2016-04-14T12:55:46.477Z,25.05
2016-04-14T12:56:46.652Z,24.98